Time;durP1;ratioP1;P1;durP2;ratioP2;P2;SDS_P1;SDS_P2;PMS_P1;PMS_P2;Temp;Humidity;BMP_temperature;BMP_pressure;BME280_temperature;BME280_humidity;BME280_pressure;Samples;Min_cycle;Max_cycle;Signal;HPM_P1;HPM_P2
2024/01/22 00:00:12;;;;;;;9.80;6.27;;;7.00;99.90;;;;;;5040746;28;20036;-84
2024/01/22 00:02:38;;;;;;;8.93;5.60;;;7.00;99.90;;;;;;5033484;28;20033;-86
2024/01/22 00:05:04;;;;;;;11.93;5.80;;;6.90;99.90;;;;;;5053335;28;20037;-85
2024/01/22 00:07:29;;;;;;;8.30;5.37;;;7.00;99.90;;;;;;5023355;28;20453;-83
2024/01/22 00:09:55;;;;;;;12.10;5.80;;;6.90;99.90;;;;;;5035576;28;20116;-83
2024/01/22 00:12:21;;;;;;;8.80;6.00;;;6.90;99.90;;;;;;5034883;28;21844;-88
2024/01/22 00:14:47;;;;;;;10.43;6.40;;;6.90;99.90;;;;;;5037470;28;20538;-83
2024/01/22 00:17:13;;;;;;;10.80;5.77;;;6.90;99.90;;;;;;5054048;28;20370;-83
2024/01/22 00:19:39;;;;;;;12.00;5.87;;;6.80;99.90;;;;;;5035696;28;20494;-83
2024/01/22 00:22:04;;;;;;;9.27;6.53;;;6.80;99.90;;;;;;5049150;28;20037;-84
2024/01/22 00:24:30;;;;;;;8.57;5.97;;;6.90;99.90;;;;;;5033812;28;20049;-84
2024/01/22 00:26:56;;;;;;;9.60;5.70;;;6.90;99.90;;;;;;5030818;28;20127;-84
2024/01/22 00:29:21;;;;;;;7.87;5.63;;;7.00;99.90;;;;;;5019003;28;20484;-83
2024/01/22 00:31:47;;;;;;;13.03;6.53;;;7.00;99.90;;;;;;5035370;28;20037;-84
2024/01/22 00:34:13;;;;;;;9.23;5.50;;;7.00;99.90;;;;;;5043332;28;20102;-82
2024/01/22 00:36:39;;;;;;;10.43;5.80;;;7.10;99.90;;;;;;5033920;28;20123;-87
2024/01/22 00:39:05;;;;;;;9.97;5.77;;;7.10;99.90;;;;;;5031816;28;20455;-84
2024/01/22 00:41:31;;;;;;;10.77;5.20;;;7.10;99.90;;;;;;5019138;28;20067;-84
2024/01/22 00:43:56;;;;;;;8.63;5.40;;;7.20;99.90;;;;;;5050287;28;20123;-84
2024/01/22 00:46:22;;;;;;;8.90;5.70;;;7.20;99.90;;;;;;5032738;28;20057;-85
2024/01/22 00:48:48;;;;;;;11.00;6.07;;;7.20;99.90;;;;;;5050207;28;20488;-84
2024/01/22 00:51:14;;;;;;;8.63;5.73;;;7.20;99.90;;;;;;5049821;28;20088;-84
2024/01/22 00:53:39;;;;;;;10.37;6.10;;;7.20;99.90;;;;;;5053775;28;20123;-84
2024/01/22 00:56:05;;;;;;;8.97;5.50;;;7.20;99.90;;;;;;5034856;28;20033;-85
2024/01/22 00:58:31;;;;;;;8.47;5.77;;;7.30;99.90;;;;;;5036391;28;20037;-84
2024/01/22 01:00:57;;;;;;;8.27;4.93;;;7.30;99.90;;;;;;5049921;28;20048;-85
2024/01/22 01:03:22;;;;;;;8.90;5.60;;;7.30;99.90;;;;;;5050144;28;20055;-84
2024/01/22 01:05:48;;;;;;;7.77;5.33;;;7.40;99.90;;;;;;5017291;28;20037;-85
2024/01/22 01:08:14;;;;;;;8.97;5.23;;;7.30;99.90;;;;;;5034396;28;20527;-84
2024/01/22 01:10:40;;;;;;;6.90;5.47;;;7.40;99.90;;;;;;5047449;28;20128;-84
2024/01/22 01:13:06;;;;;;;8.03;5.00;;;7.40;99.90;;;;;;5031109;28;21081;-86
2024/01/22 01:15:32;;;;;;;7.23;5.10;;;7.50;99.90;;;;;;5054232;28;20065;-86
2024/01/22 01:17:57;;;;;;;6.50;4.87;;;7.50;99.90;;;;;;5034151;28;20041;-84
2024/01/22 01:20:23;;;;;;;6.50;5.07;;;7.60;99.90;;;;;;5028549;28;20094;-86
2024/01/22 01:22:49;;;;;;;9.03;5.40;;;7.60;99.90;;;;;;5040000;28;20040;-86
2024/01/22 01:25:14;;;;;;;6.97;4.90;;;7.70;99.90;;;;;;5039493;28;20424;-84
2024/01/22 01:27:40;;;;;;;6.10;5.10;;;7.70;99.90;;;;;;5037373;28;20148;-84
2024/01/22 01:30:07;;;;;;;7.00;4.83;;;7.60;99.90;;;;;;5050041;28;20051;-85
2024/01/22 01:32:32;;;;;;;10.50;5.53;;;7.70;99.90;;;;;;5040698;28;20090;-87
2024/01/22 01:34:58;;;;;;;8.20;5.13;;;7.60;99.90;;;;;;5016188;28;20469;-85
2024/01/22 01:37:24;;;;;;;6.07;4.80;;;7.70;99.90;;;;;;5053947;28;20037;-83
2024/01/22 01:39:50;;;;;;;6.20;4.87;;;7.80;99.90;;;;;;5035713;28;20078;-85
2024/01/22 01:42:15;;;;;;;11.27;5.30;;;7.80;99.90;;;;;;5054329;28;20037;-85
2024/01/22 01:44:51;;;;;;;7.03;4.90;;;7.90;99.90;;;;;;5036640;28;20033;-85
2024/01/22 01:47:18;;;;;;;11.00;5.50;;;7.90;99.90;;;;;;5033855;28;20040;-86
2024/01/22 01:49:45;;;;;;;8.70;5.10;;;7.90;99.90;;;;;;5053054;28;20041;-85
2024/01/22 01:52:13;;;;;;;8.87;4.83;;;7.90;99.90;;;;;;5055200;28;20049;-87
2024/01/22 01:54:39;;;;;;;8.33;5.40;;;7.90;99.90;;;;;;5036489;28;20055;-84
2024/01/22 01:57:06;;;;;;;8.90;5.73;;;7.90;99.90;;;;;;5019759;28;20037;-83
2024/01/22 01:59:34;;;;;;;8.83;4.97;;;7.90;99.90;;;;;;5053319;28;20499;-85
2024/01/22 02:02:00;;;;;;;6.10;5.37;;;7.90;99.90;;;;;;5055007;28;20040;-84
2024/01/22 02:04:25;;;;;;;7.93;5.47;;;7.90;99.90;;;;;;5052728;28;20056;-86
2024/01/22 02:06:51;;;;;;;8.13;5.23;;;7.80;99.90;;;;;;5050015;28;20496;-85
2024/01/22 02:09:17;;;;;;;7.30;5.63;;;7.90;99.90;;;;;;5036274;28;20040;-84
2024/01/22 02:11:43;;;;;;;8.17;5.77;;;7.80;99.90;;;;;;5040638;28;20033;-86
2024/01/22 02:14:09;;;;;;;7.47;5.73;;;7.90;99.90;;;;;;5035747;28;20036;-84
2024/01/22 02:16:34;;;;;;;7.93;5.50;;;7.90;99.90;;;;;;5040323;28;20127;-83
2024/01/22 02:19:00;;;;;;;9.90;6.37;;;7.80;99.90;;;;;;5054957;28;20472;-84
2024/01/22 02:21:26;;;;;;;13.20;6.13;;;7.80;99.90;;;;;;5035846;28;20036;-85
2024/01/22 02:23:52;;;;;;;10.73;6.20;;;7.80;99.90;;;;;;5053636;28;20059;-88
2024/01/22 02:26:17;;;;;;;7.53;5.13;;;7.80;99.90;;;;;;5051664;28;20127;-85
2024/01/22 02:28:43;;;;;;;9.77;6.10;;;7.90;99.90;;;;;;5052304;28;20041;-84
2024/01/22 02:31:10;;;;;;;8.53;5.53;;;7.90;99.90;;;;;;5051809;28;20079;-83
2024/01/22 02:33:36;;;;;;;9.07;5.57;;;7.80;99.90;;;;;;5037323;28;20535;-85
2024/01/22 02:36:01;;;;;;;8.93;5.53;;;7.80;99.90;;;;;;5036649;28;20120;-86
2024/01/22 02:38:27;;;;;;;7.97;5.80;;;7.90;99.90;;;;;;5058138;28;20116;-84
2024/01/22 02:40:53;;;;;;;12.90;5.97;;;7.90;99.90;;;;;;5035086;28;20037;-85
2024/01/22 02:43:19;;;;;;;6.97;5.57;;;7.90;99.90;;;;;;5023165;28;20037;-84
2024/01/22 02:45:44;;;;;;;9.53;6.20;;;7.90;99.90;;;;;;5038323;28;20045;-84
2024/01/22 02:48:10;;;;;;;9.07;5.80;;;7.90;99.90;;;;;;5053723;28;20069;-84
2024/01/22 02:50:36;;;;;;;7.43;6.10;;;8.00;99.90;;;;;;5055788;28;20451;-84
2024/01/22 02:53:02;;;;;;;9.03;6.10;;;7.90;99.90;;;;;;5035751;28;20033;-85
2024/01/22 02:55:27;;;;;;;10.43;5.40;;;8.00;99.90;;;;;;5052248;28;20527;-84
2024/01/22 02:57:56;;;;;;;7.53;5.23;;;8.00;99.90;;;;;;5054611;28;20358;-86
2024/01/22 03:00:22;;;;;;;7.40;5.73;;;8.10;99.90;;;;;;5034909;28;20033;-84
2024/01/22 03:02:47;;;;;;;6.23;4.73;;;8.00;99.90;;;;;;5057290;28;20101;-85
2024/01/22 03:05:14;;;;;;;5.77;4.77;;;8.10;99.90;;;;;;5053704;28;20627;-83
2024/01/22 03:07:40;;;;;;;7.27;5.20;;;8.10;99.90;;;;;;5043912;28;20043;-84
2024/01/22 03:10:06;;;;;;;8.63;5.53;;;8.10;99.90;;;;;;5036306;28;20124;-85
2024/01/22 03:12:32;;;;;;;6.60;5.50;;;8.10;99.90;;;;;;5026127;28;20440;-87
2024/01/22 03:14:58;;;;;;;5.83;4.67;;;8.10;99.90;;;;;;5036179;28;20132;-86
2024/01/22 03:17:23;;;;;;;8.83;5.30;;;8.20;99.90;;;;;;5037096;28;20123;-84
2024/01/22 03:19:49;;;;;;;6.77;5.40;;;8.20;99.90;;;;;;5053353;28;20122;-82
2024/01/22 03:22:15;;;;;;;6.23;5.23;;;8.20;99.90;;;;;;5038793;28;20041;-82
2024/01/22 03:24:45;;;;;;;6.00;4.90;;;8.20;99.90;;;;;;5034699;28;20037;-86
2024/01/22 03:27:11;;;;;;;5.90;4.53;;;8.20;99.90;;;;;;5052181;28;20076;-85
2024/01/22 03:29:37;;;;;;;5.30;4.77;;;8.30;99.90;;;;;;5035914;28;20083;-85
2024/01/22 03:32:06;;;;;;;5.60;4.83;;;8.30;99.90;;;;;;5034279;28;20068;-87
2024/01/22 03:34:32;;;;;;;7.33;4.77;;;8.30;99.90;;;;;;5051007;28;20132;-84
2024/01/22 03:36:57;;;;;;;7.37;5.07;;;8.40;99.90;;;;;;5042296;28;20037;-86
2024/01/22 03:39:23;;;;;;;5.77;4.40;;;8.30;99.90;;;;;;5017680;28;20128;-83
2024/01/22 03:41:49;;;;;;;6.13;4.60;;;8.40;99.90;;;;;;5054123;28;20577;-83
2024/01/22 03:44:15;;;;;;;6.60;4.43;;;8.40;99.90;;;;;;5050613;28;20075;-86
2024/01/22 03:46:41;;;;;;;5.53;4.67;;;8.40;99.90;;;;;;5050661;28;20509;-83
2024/01/22 03:49:07;;;;;;;6.47;5.17;;;8.40;99.90;;;;;;5035283;28;20842;-86
2024/01/22 03:51:33;;;;;;;7.27;4.57;;;8.40;99.90;;;;;;5034200;28;20103;-85
2024/01/22 03:53:58;;;;;;;8.10;4.73;;;8.40;99.90;;;;;;5051006;28;20045;-83
2024/01/22 03:56:24;;;;;;;6.57;4.97;;;8.40;99.90;;;;;;5036054;28;20033;-86
2024/01/22 03:58:50;;;;;;;6.63;4.90;;;8.40;99.90;;;;;;5035007;28;20415;-85
2024/01/22 04:01:22;;;;;;;9.20;4.83;;;8.40;99.90;;;;;;5055812;28;20041;-83
2024/01/22 04:03:50;;;;;;;5.27;4.50;;;8.40;99.90;;;;;;5050235;28;20045;-85
2024/01/22 04:06:16;;;;;;;6.67;5.17;;;8.50;99.90;;;;;;5047961;28;20040;-85
2024/01/22 04:08:42;;;;;;;6.17;4.73;;;8.40;99.90;;;;;;5054078;28;20060;-84
2024/01/22 04:11:08;;;;;;;5.90;5.07;;;8.40;99.90;;;;;;5033906;28;20174;-86
2024/01/22 04:13:34;;;;;;;6.63;4.30;;;8.40;99.90;;;;;;5051782;28;20041;-84
2024/01/22 04:15:59;;;;;;;8.77;5.00;;;8.50;99.90;;;;;;5035182;28;20146;-84
2024/01/22 04:18:25;;;;;;;6.17;4.50;;;8.50;99.90;;;;;;5034590;28;20495;-86
2024/01/22 04:20:51;;;;;;;5.97;4.83;;;8.50;99.90;;;;;;5050990;28;20055;-86
2024/01/22 04:23:17;;;;;;;5.53;4.47;;;8.50;99.90;;;;;;5035294;28;20095;-85
2024/01/22 04:25:42;;;;;;;5.03;4.53;;;8.60;99.90;;;;;;5060461;28;20040;-84
2024/01/22 04:28:08;;;;;;;5.13;4.20;;;8.60;99.90;;;;;;5071744;28;20041;-84
2024/01/22 04:30:34;;;;;;;7.17;4.37;;;8.60;99.90;;;;;;5071553;28;20075;-84
2024/01/22 04:33:00;;;;;;;5.27;4.40;;;8.60;99.90;;;;;;5049649;28;20087;-85
2024/01/22 04:35:25;;;;;;;5.33;4.83;;;8.60;99.90;;;;;;5058440;28;20055;-83
2024/01/22 04:37:51;;;;;;;5.93;4.60;;;8.60;99.90;;;;;;5041066;28;20041;-83
2024/01/22 04:40:17;;;;;;;6.90;4.27;;;8.60;99.90;;;;;;5071220;28;20052;-84
2024/01/22 04:42:44;;;;;;;5.20;4.40;;;8.60;99.90;;;;;;5054954;28;20056;-85
2024/01/22 04:45:10;;;;;;;5.10;4.40;;;8.60;99.90;;;;;;5071805;28;20040;-84
2024/01/22 04:47:36;;;;;;;5.60;4.17;;;8.70;99.90;;;;;;5034986;28;20041;-85
2024/01/22 04:50:02;;;;;;;5.57;4.00;;;8.70;99.90;;;;;;5035819;28;20043;-84
2024/01/22 04:52:29;;;;;;;5.67;4.07;;;8.70;99.90;;;;;;5050789;28;20049;-85
2024/01/22 04:54:56;;;;;;;5.43;4.00;;;8.80;99.90;;;;;;5060573;28;20045;-85
2024/01/22 04:57:22;;;;;;;4.90;4.07;;;8.80;99.90;;;;;;5053777;28;20099;-87
2024/01/22 04:59:48;;;;;;;4.73;3.83;;;8.80;99.90;;;;;;5054925;28;20370;-85
2024/01/22 05:02:13;;;;;;;5.53;3.97;;;8.80;99.90;;;;;;5038478;28;20044;-83
2024/01/22 05:04:39;;;;;;;4.70;4.20;;;8.90;99.90;;;;;;5038373;28;20060;-83
2024/01/22 05:07:05;;;;;;;4.10;3.77;;;8.90;99.90;;;;;;5044662;28;20075;-86
2024/01/22 05:09:31;;;;;;;4.20;3.80;;;8.90;99.90;;;;;;5058055;28;20041;-85
2024/01/22 05:11:56;;;;;;;5.87;3.80;;;9.00;99.90;;;;;;5056216;28;20665;-86
2024/01/22 05:14:22;;;;;;;4.20;3.77;;;9.00;99.90;;;;;;5074097;28;20070;-86
2024/01/22 05:16:48;;;;;;;5.60;4.00;;;9.00;99.90;;;;;;5062930;28;20129;-84
2024/01/22 05:19:14;;;;;;;5.47;4.40;;;9.00;99.90;;;;;;5054745;28;20091;-85
2024/01/22 05:21:39;;;;;;;4.30;3.90;;;9.00;99.90;;;;;;5054323;28;20044;-84
2024/01/22 05:24:06;;;;;;;4.20;3.77;;;9.00;99.90;;;;;;5037832;28;20040;-84
2024/01/22 05:26:32;;;;;;;4.93;3.90;;;9.10;99.90;;;;;;5037547;28;20044;-85
2024/01/22 05:28:57;;;;;;;4.20;3.60;;;9.10;99.90;;;;;;5042461;28;20094;-85
2024/01/22 05:31:23;;;;;;;4.20;3.80;;;9.10;99.90;;;;;;5043084;28;20037;-86
2024/01/22 05:33:49;;;;;;;4.40;3.73;;;9.20;99.90;;;;;;5037369;28;20508;-83
2024/01/22 05:36:14;;;;;;;4.20;3.53;;;9.20;99.90;;;;;;5054457;28;20044;-86
2024/01/22 05:38:43;;;;;;;3.67;3.37;;;9.30;99.90;;;;;;5048401;28;20067;-84
2024/01/22 05:41:08;;;;;;;5.27;3.70;;;9.30;99.90;;;;;;5037471;28;20051;-85
2024/01/22 05:43:35;;;;;;;5.10;3.40;;;9.30;99.90;;;;;;5050602;28;20115;-83
2024/01/22 05:46:01;;;;;;;3.80;3.40;;;9.40;99.90;;;;;;5062163;28;20041;-82
2024/01/22 05:48:27;;;;;;;4.17;3.60;;;9.40;99.90;;;;;;5053931;28;20102;-85
2024/01/22 05:50:53;;;;;;;4.40;3.30;;;9.40;99.90;;;;;;5072322;28;20041;-86
2024/01/22 05:53:18;;;;;;;5.47;3.47;;;9.40;99.90;;;;;;5049751;28;20059;-86
2024/01/22 05:55:44;;;;;;;4.87;3.00;;;9.40;99.90;;;;;;5048045;28;20045;-83
2024/01/22 05:58:10;;;;;;;3.37;2.77;;;9.50;99.90;;;;;;5041979;28;20037;-84
2024/01/22 06:00:38;;;;;;;3.47;2.60;;;9.50;99.90;;;;;;5064841;28;20484;-84
2024/01/22 06:03:04;;;;;;;3.17;2.70;;;9.50;99.90;;;;;;5049149;28;20048;-85
2024/01/22 06:05:30;;;;;;;3.63;2.50;;;9.60;99.90;;;;;;5045695;28;20041;-85
2024/01/22 06:07:55;;;;;;;3.57;2.20;;;9.60;99.90;;;;;;5054810;28;20040;-85
2024/01/22 06:10:21;;;;;;;2.73;2.23;;;9.70;99.90;;;;;;5053780;28;20124;-83
2024/01/22 06:12:47;;;;;;;4.17;2.20;;;9.80;99.90;;;;;;5037226;28;20083;-83
2024/01/22 06:15:13;;;;;;;2.73;2.20;;;9.80;99.90;;;;;;5053759;28;20037;-84
2024/01/22 06:17:39;;;;;;;4.03;2.07;;;9.90;99.90;;;;;;5017219;28;20463;-83
2024/01/22 06:20:05;;;;;;;4.27;2.50;;;10.00;99.90;;;;;;5035103;28;20432;-85
2024/01/22 06:22:33;;;;;;;2.10;1.90;;;10.00;99.90;;;;;;5056877;28;20805;-84
2024/01/22 06:25:00;;;;;;;3.10;2.13;;;10.10;99.90;;;;;;5028299;28;20036;-84
2024/01/22 06:27:26;;;;;;;2.70;1.97;;;10.10;99.90;;;;;;5043023;28;20051;-85
2024/01/22 06:29:53;;;;;;;3.00;1.97;;;10.20;99.90;;;;;;5019543;28;20048;-84
2024/01/22 06:32:19;;;;;;;4.40;2.40;;;10.20;99.90;;;;;;5068753;28;20052;-84
2024/01/22 06:34:46;;;;;;;2.67;2.00;;;10.20;99.90;;;;;;5062222;28;20044;-83
2024/01/22 06:37:12;;;;;;;2.17;1.73;;;10.30;99.90;;;;;;5008982;28;20075;-84
2024/01/22 06:39:38;;;;;;;3.60;1.70;;;10.30;99.90;;;;;;5042660;28;20032;-83
2024/01/22 06:42:04;;;;;;;3.17;1.70;;;10.40;99.90;;;;;;5060256;28;20099;-84
2024/01/22 06:44:29;;;;;;;3.27;1.87;;;10.50;99.90;;;;;;5020839;28;20032;-85
2024/01/22 06:46:55;;;;;;;2.07;1.60;;;10.50;99.90;;;;;;5045594;28;20079;-84
2024/01/22 06:49:21;;;;;;;4.00;1.70;;;10.60;99.90;;;;;;5056342;28;20037;-85
2024/01/22 06:51:47;;;;;;;2.20;1.13;;;10.60;99.90;;;;;;5039747;28;20045;-83
2024/01/22 06:54:14;;;;;;;2.43;1.40;;;10.70;99.90;;;;;;5061294;28;20048;-85
2024/01/22 06:56:40;;;;;;;1.87;1.50;;;10.80;99.90;;;;;;5060616;28;20059;-84
2024/01/22 06:59:06;;;;;;;3.23;1.73;;;10.90;99.90;;;;;;5065325;28;20052;-85
2024/01/22 07:01:32;;;;;;;4.23;1.63;;;10.90;99.90;;;;;;5059575;28;20049;-82
2024/01/22 07:03:57;;;;;;;5.00;1.90;;;10.90;99.90;;;;;;5054792;28;20045;-87
2024/01/22 07:06:23;;;;;;;6.57;2.20;;;10.90;99.90;;;;;;5039975;28;20084;-83
2024/01/22 07:08:49;;;;;;;6.07;2.17;;;10.90;99.90;;;;;;5035701;28;20047;-86
2024/01/22 07:11:15;;;;;;;7.67;2.50;;;10.80;99.90;;;;;;5065678;28;20064;-85
2024/01/22 07:13:40;;;;;;;9.90;2.80;;;10.80;99.90;;;;;;5063671;28;20476;-84
2024/01/22 07:16:07;;;;;;;8.47;3.00;;;10.80;99.90;;;;;;5039518;28;20033;-87
2024/01/22 07:18:33;;;;;;;11.33;3.20;;;10.80;99.90;;;;;;5041307;28;20361;-87
2024/01/22 07:21:00;;;;;;;13.90;3.97;;;10.70;99.90;;;;;;5042972;28;20052;-85
2024/01/22 07:23:26;;;;;;;15.93;4.27;;;10.80;99.90;;;;;;5062895;28;20040;-86
2024/01/22 07:25:54;;;;;;;10.03;3.63;;;10.70;99.90;;;;;;5039488;28;20036;-88
2024/01/22 07:28:22;;;;;;;12.63;3.50;;;10.70;99.90;;;;;;5033977;28;20044;-85
2024/01/22 07:30:48;;;;;;;16.97;3.77;;;10.70;99.90;;;;;;5049815;28;20090;-86
2024/01/22 07:33:16;;;;;;;12.57;3.73;;;10.70;99.90;;;;;;5070748;28;20125;-86
2024/01/22 07:35:42;;;;;;;14.50;3.70;;;10.70;99.90;;;;;;5021146;28;20151;-84
2024/01/22 07:38:08;;;;;;;11.13;3.40;;;10.60;99.90;;;;;;5034589;28;20502;-86
2024/01/22 07:40:33;;;;;;;13.67;3.93;;;10.60;99.90;;;;;;5050887;28;20171;-87
2024/01/22 07:42:59;;;;;;;15.47;4.17;;;10.50;99.90;;;;;;5050569;28;20036;-84
2024/01/22 07:45:25;;;;;;;16.73;4.23;;;10.60;99.90;;;;;;5038487;28;20045;-86
2024/01/22 07:47:51;;;;;;;16.77;4.50;;;10.50;99.90;;;;;;5041218;28;20036;-85
2024/01/22 07:50:16;;;;;;;21.87;5.17;;;10.50;99.90;;;;;;5061102;28;20041;-86
2024/01/22 07:52:43;;;;;;;17.93;4.80;;;10.50;99.90;;;;;;5034041;28;20045;-86
2024/01/22 07:55:11;;;;;;;20.33;4.97;;;10.50;99.90;;;;;;5049967;28;20056;-85
2024/01/22 07:57:37;;;;;;;17.50;3.70;;;10.50;99.90;;;;;;5063508;28;20480;-86
2024/01/22 08:00:11;;;;;;;15.47;4.57;;;10.60;99.90;;;;;;5046586;28;20037;-83
2024/01/22 08:02:40;;;;;;;17.37;4.90;;;10.60;99.90;;;;;;5033877;28;20052;-86
2024/01/22 08:05:07;;;;;;;19.73;4.47;;;10.50;99.90;;;;;;5014003;28;20088;-86
2024/01/22 08:07:33;;;;;;;19.17;5.30;;;10.60;99.90;;;;;;5030779;28;20067;-86
2024/01/22 08:09:59;;;;;;;16.90;5.13;;;10.60;99.90;;;;;;5057054;28;20044;-85
2024/01/22 08:12:25;;;;;;;20.33;5.47;;;10.60;99.90;;;;;;5044906;28;20037;-85
2024/01/22 08:14:51;;;;;;;22.07;5.20;;;10.60;99.90;;;;;;5055885;28;20124;-86
2024/01/22 08:17:16;;;;;;;17.03;4.80;;;10.60;99.90;;;;;;5059102;28;20044;-88
2024/01/22 08:19:42;;;;;;;22.30;5.47;;;10.60;99.90;;;;;;5041979;28;20040;-88
2024/01/22 08:22:09;;;;;;;15.70;4.87;;;10.60;99.90;;;;;;5042150;28;20040;-85
2024/01/22 08:24:34;;;;;;;20.33;5.03;;;10.60;99.90;;;;;;5061181;28;20411;-88
2024/01/22 08:27:01;;;;;;;19.57;4.47;;;10.60;99.90;;;;;;5064255;28;20037;-86
2024/01/22 08:29:27;;;;;;;17.27;4.33;;;10.70;99.90;;;;;;5041107;28;20128;-87
2024/01/22 08:31:53;;;;;;;16.00;5.03;;;10.60;99.90;;;;;;5042795;28;20041;-85
2024/01/22 08:34:19;;;;;;;16.43;4.17;;;10.60;99.90;;;;;;5063183;28;20120;-86
2024/01/22 08:36:45;;;;;;;17.57;5.30;;;10.60;99.90;;;;;;5036878;28;20129;-87
2024/01/22 08:39:11;;;;;;;16.60;5.17;;;10.60;99.90;;;;;;5042068;28;20032;-85
2024/01/22 08:41:37;;;;;;;17.67;4.37;;;10.60;99.90;;;;;;5042423;28;20499;-87
2024/01/22 08:44:05;;;;;;;16.97;5.20;;;10.60;99.90;;;;;;5044688;28;20151;-86
2024/01/22 08:46:34;;;;;;;20.70;5.20;;;10.60;99.90;;;;;;5066265;28;20504;-86
2024/01/22 08:49:00;;;;;;;17.97;4.97;;;10.60;99.90;;;;;;5037794;28;20444;-85
2024/01/22 08:51:26;;;;;;;22.73;4.90;;;10.60;99.90;;;;;;5036699;28;20103;-86
2024/01/22 08:53:52;;;;;;;18.67;4.97;;;10.60;99.90;;;;;;5053177;28;20491;-82
2024/01/22 08:56:17;;;;;;;16.77;4.83;;;10.60;99.90;;;;;;5051649;28;20083;-83
2024/01/22 08:58:43;;;;;;;11.57;4.97;;;10.60;99.90;;;;;;5035580;28;20045;-83
2024/01/22 09:01:09;;;;;;;13.43;3.90;;;10.60;99.90;;;;;;5040261;28;20091;-85
2024/01/22 09:03:35;;;;;;;14.40;3.40;;;10.60;99.90;;;;;;5047082;28;20040;-85
2024/01/22 09:06:01;;;;;;;13.10;4.27;;;10.60;99.90;;;;;;5066560;28;20041;-85
2024/01/22 09:08:28;;;;;;;17.23;4.70;;;10.60;99.90;;;;;;5054636;28;20047;-84
2024/01/22 09:10:54;;;;;;;22.73;5.60;;;10.60;99.90;;;;;;5067997;28;20040;-84
2024/01/22 09:13:20;;;;;;;27.40;6.57;;;10.50;99.90;;;;;;5042450;28;20060;-85
2024/01/22 09:15:46;;;;;;;24.60;6.20;;;10.50;99.90;;;;;;5036327;28;20505;-85
2024/01/22 09:18:12;;;;;;;25.13;5.53;;;10.40;99.90;;;;;;5036316;28;20123;-84
2024/01/22 09:20:37;;;;;;;33.03;6.60;;;10.50;99.90;;;;;;5036623;28;20039;-85
2024/01/22 09:23:03;;;;;;;32.03;6.77;;;10.40;99.90;;;;;;5067952;28;20557;-85
2024/01/22 09:25:29;;;;;;;29.53;7.40;;;10.40;99.90;;;;;;5042576;28;20041;-86
2024/01/22 09:27:55;;;;;;;29.50;7.07;;;10.40;99.90;;;;;;5052630;28;20044;-87
2024/01/22 09:30:20;;;;;;;28.50;7.37;;;10.40;99.90;;;;;;5035857;28;20048;-85
2024/01/22 09:32:46;;;;;;;34.70;7.73;;;10.40;99.90;;;;;;5032989;28;20052;-85
2024/01/22 09:35:14;;;;;;;40.47;8.20;;;10.40;99.90;;;;;;5026131;28;20049;-84
2024/01/22 09:37:40;;;;;;;30.63;7.63;;;10.30;99.90;;;;;;5048712;28;20313;-88
2024/01/22 09:40:11;;;;;;;33.90;7.50;;;10.30;99.90;;;;;;5009834;28;20036;-84
2024/01/22 09:42:39;;;;;;;35.47;8.00;;;10.40;99.90;;;;;;5051701;28;20127;-86
2024/01/22 09:45:08;;;;;;;35.53;7.60;;;10.40;99.90;;;;;;5047187;28;20037;-87
2024/01/22 09:47:35;;;;;;;35.97;7.47;;;10.40;99.90;;;;;;5041790;28;20175;-86
2024/01/22 09:50:01;;;;;;;31.23;7.43;;;10.50;99.90;;;;;;5049255;28;20490;-86
2024/01/22 09:52:32;;;;;;;34.73;8.30;;;10.50;99.90;;;;;;5053865;28;20052;-86
2024/01/22 09:54:58;;;;;;;35.37;8.63;;;10.40;99.90;;;;;;5035070;28;20036;-86
2024/01/22 09:57:27;;;;;;;43.17;8.93;;;10.40;99.90;;;;;;5064232;28;20048;-86
2024/01/22 09:59:54;;;;;;;34.97;8.23;;;10.40;99.90;;;;;;5035892;28;20037;-88
2024/01/22 10:02:21;;;;;;;38.93;8.13;;;10.30;99.90;;;;;;5035350;28;20048;-87
2024/01/22 10:04:47;;;;;;;38.23;7.97;;;10.30;99.90;;;;;;5052220;28;20124;-85
2024/01/22 10:07:16;;;;;;;36.90;8.17;;;10.30;99.90;;;;;;5051585;28;20532;-87
2024/01/22 10:09:43;;;;;;;34.07;8.33;;;10.30;99.90;;;;;;5036979;28;20044;-88
2024/01/22 10:12:09;;;;;;;33.57;8.20;;;10.20;99.90;;;;;;5056153;28;20052;-85
2024/01/22 10:14:37;;;;;;;37.50;8.37;;;10.20;99.90;;;;;;5033958;28;20040;-87
2024/01/22 10:17:20;;;;;;;34.77;8.13;;;10.20;99.90;;;;;;5047131;28;20073;-88
2024/01/22 10:19:48;;;;;;;32.13;7.47;;;10.20;99.90;;;;;;5034980;28;20048;-87
2024/01/22 10:22:19;;;;;;;38.03;10.23;;;10.20;99.90;;;;;;5050329;28;20514;-86
2024/01/22 10:25:00;;;;;;;31.13;8.70;;;10.10;99.90;;;;;;5034354;28;20415;-87
2024/01/22 10:27:26;;;;;;;35.27;9.03;;;10.20;99.90;;;;;;5034737;28;20098;-84
2024/01/22 10:30:06;;;;;;;39.50;8.57;;;10.10;99.90;;;;;;5030196;28;20544;-87
2024/01/22 10:32:32;;;;;;;38.23;9.27;;;10.10;99.90;;;;;;5025754;28;20048;-87
2024/01/22 10:34:58;;;;;;;49.23;10.23;;;10.10;99.90;;;;;;5028113;28;20458;-88
2024/01/22 10:37:24;;;;;;;43.23;10.13;;;10.10;99.90;;;;;;5035141;28;20114;-87
2024/01/22 10:40:03;;;;;;;44.57;10.17;;;10.20;99.90;;;;;;5034628;28;20033;-86
2024/01/22 10:42:29;;;;;;;49.87;10.30;;;10.20;99.90;;;;;;5040083;28;20048;-86
2024/01/22 10:44:56;;;;;;;42.93;9.20;;;10.30;99.90;;;;;;5034890;28;20045;-87
2024/01/22 10:47:23;;;;;;;39.80;9.13;;;10.30;99.90;;;;;;5034564;28;20083;-86
2024/01/22 10:49:51;;;;;;;46.17;10.53;;;10.20;99.90;;;;;;5053347;28;20092;-85
2024/01/22 10:52:18;;;;;;;49.70;10.17;;;10.30;99.90;;;;;;5051896;28;20057;-87
2024/01/22 10:54:44;;;;;;;41.20;9.20;;;10.30;99.90;;;;;;5034290;28;20040;-88
2024/01/22 10:57:15;;;;;;;42.23;10.17;;;10.30;99.90;;;;;;5019700;28;20828;-86
2024/01/22 10:59:48;;;;;;;43.23;10.30;;;10.20;99.90;;;;;;5034558;28;20060;-88
2024/01/22 11:02:21;;;;;;;44.43;11.03;;;10.20;99.90;;;;;;5046705;28;20445;-88
2024/01/22 11:04:52;;;;;;;47.97;11.10;;;10.10;99.90;;;;;;5051808;28;20056;-87
2024/01/22 11:07:26;;;;;;;48.33;10.37;;;10.10;99.90;;;;;;5040817;28;20079;-89
2024/01/22 11:09:55;;;;;;;46.97;9.80;;;10.00;99.90;;;;;;5038446;28;20053;-89
2024/01/22 11:12:22;;;;;;;42.23;9.97;;;10.00;99.90;;;;;;5050178;28;20049;-88
2024/01/22 11:14:51;;;;;;;52.00;10.10;;;10.00;99.90;;;;;;5036541;28;20089;-89
2024/01/22 11:17:19;;;;;;;44.30;10.50;;;10.10;99.90;;;;;;5033873;28;20048;-87
2024/01/22 11:19:45;;;;;;;46.90;9.67;;;10.10;99.90;;;;;;5033751;28;20048;-88
2024/01/22 11:22:22;;;;;;;42.57;8.90;;;10.20;99.90;;;;;;5047561;28;20041;-85
2024/01/22 11:25:17;;;;;;;31.67;8.37;;;10.30;99.90;;;;;;5034173;28;20048;-87
2024/01/22 11:27:44;;;;;;;40.13;9.10;;;10.40;99.90;;;;;;5012373;28;20144;-87
2024/01/22 11:30:38;;;;;;;40.63;9.13;;;10.40;99.90;;;;;;5026143;28;20408;-86
2024/01/22 11:33:31;;;;;;;36.33;8.73;;;10.50;99.90;;;;;;5035593;28;20041;-87
2024/01/22 11:35:57;;;;;;;37.57;9.03;;;10.50;99.90;;;;;;5031211;28;20499;-87
2024/01/22 11:38:53;;;;;;;34.93;8.37;;;10.50;99.90;;;;;;5033907;28;20098;-87
2024/01/22 11:41:29;;;;;;;35.90;8.57;;;10.60;99.90;;;;;;5050244;28;20049;-86
2024/01/22 11:43:58;;;;;;;33.60;7.80;;;10.60;99.90;;;;;;5050457;28;20049;-85
2024/01/22 11:46:25;;;;;;;37.30;8.23;;;10.60;99.90;;;;;;5036138;28;20040;-89
2024/01/22 11:48:53;;;;;;;33.97;8.57;;;10.60;99.90;;;;;;5033279;28;20041;-87
2024/01/22 11:51:24;;;;;;;29.27;7.60;;;10.50;99.90;;;;;;5049731;28;20487;-87
2024/01/22 11:53:52;;;;;;;27.95;7.38;;;10.60;99.90;;;;;;5042340;28;20408;-88
2024/01/22 11:56:19;;;;;;;32.33;8.23;;;10.60;99.90;;;;;;5032542;28;20055;-86
2024/01/22 11:58:45;;;;;;;32.53;8.60;;;10.50;99.90;;;;;;5026445;28;20044;-86
2024/01/22 12:01:11;;;;;;;33.97;7.60;;;10.50;99.90;;;;;;5026128;28;20536;-87
2024/01/22 12:03:37;;;;;;;32.20;7.67;;;10.60;99.90;;;;;;5028561;28;20397;-86
2024/01/22 12:06:08;;;;;;;28.67;8.70;;;10.60;99.90;;;;;;5062195;28;20515;-86
2024/01/22 12:08:35;;;;;;;33.93;7.07;;;10.60;99.90;;;;;;5032750;28;20496;-87
2024/01/22 12:11:13;;;;;;;25.10;7.23;;;10.50;99.90;;;;;;5049773;28;20076;-87
2024/01/22 12:13:43;;;;;;;29.97;6.53;;;10.60;99.90;;;;;;5047361;28;20128;-84
2024/01/22 12:16:19;;;;;;;30.33;6.77;;;10.50;99.90;;;;;;5052433;28;20052;-87
2024/01/22 12:18:45;;;;;;;29.57;7.13;;;10.60;99.90;;;;;;5048191;28;20044;-88
2024/01/22 12:21:12;;;;;;;30.67;6.83;;;10.50;99.90;;;;;;5039804;28;20079;-84
2024/01/22 12:23:39;;;;;;;31.97;6.70;;;10.50;99.90;;;;;;5041596;28;20048;-85
2024/01/22 12:26:32;;;;;;;27.47;6.47;;;10.50;99.90;;;;;;5025788;28;20045;-85
2024/01/22 12:28:58;;;;;;;26.23;5.63;;;10.50;99.90;;;;;;5028915;28;20455;-87
2024/01/22 12:31:24;;;;;;;21.40;5.70;;;10.50;99.90;;;;;;5023592;28;20065;-88
2024/01/22 12:33:50;;;;;;;29.33;6.90;;;10.40;99.90;;;;;;5061109;28;20045;-85
2024/01/22 12:36:16;;;;;;;30.70;6.47;;;10.40;99.90;;;;;;5049069;28;20554;-85
2024/01/22 12:38:53;;;;;;;24.60;5.50;;;10.40;99.90;;;;;;5062346;28;21333;-86
2024/01/22 12:41:20;;;;;;;23.23;5.43;;;10.40;99.90;;;;;;5031504;28;20044;-86
2024/01/22 12:43:46;;;;;;;23.17;5.20;;;10.40;99.90;;;;;;5042399;28;20055;-86